createdAt,value
2023-05-17T00:00:09.035Z,1012.58
2023-05-17T00:01:09.246Z,1012.56
2023-05-17T00:02:09.472Z,1012.54
2023-05-17T00:03:09.723Z,1012.57
2023-05-17T00:04:10.000Z,1012.51
2023-05-17T00:05:10.207Z,1012.53
2023-05-17T00:06:10.489Z,1012.53
2023-05-17T00:07:10.677Z,1012.50
2023-05-17T00:08:10.902Z,1012.54
2023-05-17T00:09:11.146Z,1012.55
2023-05-17T00:10:11.465Z,1012.55
2023-05-17T00:11:11.589Z,1012.56
2023-05-17T00:12:11.808Z,1012.55
2023-05-17T00:13:12.012Z,1012.52
2023-05-17T00:14:12.219Z,1012.56
2023-05-17T00:15:12.408Z,1012.55
2023-05-17T00:16:12.641Z,1012.53
2023-05-17T00:17:12.850Z,1012.52
2023-05-17T00:18:13.139Z,1012.52
2023-05-17T00:19:13.504Z,1012.51
2023-05-17T00:20:13.619Z,1012.55
2023-05-17T00:21:13.884Z,1012.52
2023-05-17T00:22:14.077Z,1012.51
2023-05-17T00:23:14.319Z,1012.54
2023-05-17T00:24:14.552Z,1012.53
2023-05-17T00:25:14.736Z,1012.51
2023-05-17T00:26:15.015Z,1012.50
2023-05-17T00:27:15.214Z,1012.46
2023-05-17T00:28:15.409Z,1012.52
2023-05-17T00:29:15.582Z,1012.57
2023-05-17T00:30:15.879Z,1012.54
2023-05-17T00:31:16.218Z,1012.54
2023-05-17T00:32:16.408Z,1012.52
2023-05-17T00:33:16.703Z,1012.54
2023-05-17T00:34:16.916Z,1012.53
2023-05-17T00:35:17.176Z,1012.55
2023-05-17T00:36:17.400Z,1012.55
2023-05-17T00:37:17.605Z,1012.52
2023-05-17T00:38:17.918Z,1012.53
2023-05-17T00:39:18.109Z,1012.50
2023-05-17T00:40:18.376Z,1012.55
2023-05-17T00:41:18.630Z,1012.50
2023-05-17T00:42:18.969Z,1012.54
2023-05-17T00:43:19.059Z,1012.54
2023-05-17T00:44:19.269Z,1012.57
2023-05-17T00:45:19.468Z,1012.57
2023-05-17T00:46:19.781Z,1012.58
2023-05-17T00:47:19.994Z,1012.55
2023-05-17T00:48:20.302Z,1012.61
2023-05-17T00:49:20.468Z,1012.65
2023-05-17T00:50:20.781Z,1012.63
2023-05-17T00:51:21.117Z,1012.68
2023-05-17T00:52:21.349Z,1012.62
2023-05-17T00:53:21.717Z,1012.65
2023-05-17T00:54:21.781Z,1012.62
2023-05-17T00:55:21.977Z,1012.63
2023-05-17T00:56:22.183Z,1012.58
2023-05-17T00:57:22.366Z,1012.58
2023-05-17T00:58:22.623Z,1012.58
2023-05-17T00:59:22.810Z,1012.53
2023-05-17T01:00:23.002Z,1012.54
2023-05-17T01:01:23.310Z,1012.56
2023-05-17T01:02:23.538Z,1012.51
2023-05-17T01:03:23.762Z,1012.54
2023-05-17T01:04:24.025Z,1012.50
2023-05-17T01:05:24.190Z,1012.55
2023-05-17T01:06:24.505Z,1012.55
2023-05-17T01:07:24.688Z,1012.52
2023-05-17T01:08:25.058Z,1012.56
2023-05-17T01:09:25.302Z,1012.55
2023-05-17T01:10:25.490Z,1012.54
2023-05-17T01:11:25.748Z,1012.56
2023-05-17T01:12:25.992Z,1012.53
2023-05-17T01:13:26.199Z,1012.59
2023-05-17T01:14:26.416Z,1012.55
2023-05-17T01:15:26.845Z,1012.57
2023-05-17T01:16:26.834Z,1012.56
2023-05-17T01:17:27.148Z,1012.57
2023-05-17T01:18:27.454Z,1012.55
2023-05-17T01:19:27.679Z,1012.54
2023-05-17T01:20:28.019Z,1012.58
2023-05-17T01:21:28.003Z,1012.56
2023-05-17T01:22:28.188Z,1012.57
2023-05-17T01:23:28.372Z,1012.59
2023-05-17T01:24:28.698Z,1012.62
2023-05-17T01:25:29.117Z,1012.65
2023-05-17T01:26:29.201Z,1012.71
2023-05-17T01:27:29.409Z,1012.68
2023-05-17T01:28:29.606Z,1012.68
2023-05-17T01:29:29.792Z,1012.69
2023-05-17T01:30:30.120Z,1012.72
2023-05-17T01:31:30.322Z,1012.68
2023-05-17T01:32:30.595Z,1012.66
2023-05-17T01:33:30.799Z,1012.66
2023-05-17T01:34:31.017Z,1012.69
2023-05-17T01:35:31.403Z,1012.71
2023-05-17T01:36:31.418Z,1012.74
2023-05-17T01:37:31.602Z,1012.73
2023-05-17T01:38:31.932Z,1012.74
2023-05-17T01:39:32.132Z,1012.75
2023-05-17T01:40:32.428Z,1012.78
2023-05-17T01:41:32.626Z,1012.81
2023-05-17T01:42:32.933Z,1012.78
2023-05-17T01:43:33.118Z,1012.80
2023-05-17T01:44:33.422Z,1012.83
2023-05-17T01:45:33.645Z,1012.84
2023-05-17T01:46:33.850Z,1012.84
2023-05-17T01:47:34.131Z,1012.84
2023-05-17T01:48:34.383Z,1012.86
2023-05-17T01:49:34.587Z,1012.85
2023-05-17T01:50:34.783Z,1012.86
2023-05-17T01:51:34.980Z,1012.86
2023-05-17T01:52:35.212Z,1012.79
2023-05-17T01:53:35.390Z,1012.82
2023-05-17T01:54:35.591Z,1012.83
2023-05-17T01:55:35.777Z,1012.84
2023-05-17T01:56:36.032Z,1012.83
2023-05-17T01:57:36.239Z,1012.82
2023-05-17T01:58:36.471Z,1012.86
2023-05-17T01:59:36.661Z,1012.88
2023-05-17T02:00:36.967Z,1012.85
2023-05-17T02:01:37.151Z,1012.88
2023-05-17T02:02:37.515Z,1012.88
2023-05-17T02:03:37.737Z,1012.86
2023-05-17T02:04:37.974Z,1012.83
2023-05-17T02:05:38.156Z,1012.84
2023-05-17T02:06:38.376Z,1012.81
2023-05-17T02:07:38.615Z,1012.81
2023-05-17T02:08:38.832Z,1012.79
2023-05-17T02:09:39.037Z,1012.82
2023-05-17T02:10:39.271Z,1012.80
2023-05-17T02:11:39.627Z,1012.83
2023-05-17T02:12:39.736Z,1012.78
2023-05-17T02:13:39.947Z,1012.80
2023-05-17T02:14:40.190Z,1012.76
2023-05-17T02:15:40.331Z,1012.79
2023-05-17T02:16:40.660Z,1012.72
2023-05-17T02:17:41.001Z,1012.73
2023-05-17T02:18:41.155Z,1012.77
2023-05-17T02:19:41.345Z,1012.77
2023-05-17T02:20:41.656Z,1012.83
2023-05-17T02:21:41.865Z,1012.85
2023-05-17T02:22:42.071Z,1012.82
2023-05-17T02:23:42.267Z,1012.88
2023-05-17T02:24:42.464Z,1012.81
2023-05-17T02:25:42.701Z,1012.83
2023-05-17T02:26:42.897Z,1012.76
2023-05-17T02:27:43.101Z,1012.78
2023-05-17T02:28:43.356Z,1012.76
2023-05-17T02:29:43.581Z,1012.76
2023-05-17T02:30:43.763Z,1012.68
2023-05-17T02:31:44.187Z,1012.69
2023-05-17T02:32:44.391Z,1012.69
2023-05-17T02:33:44.684Z,1012.66
2023-05-17T02:34:44.861Z,1012.67
2023-05-17T02:35:45.062Z,1012.64
2023-05-17T02:36:45.282Z,1012.63
2023-05-17T02:37:45.494Z,1012.61
2023-05-17T02:38:45.700Z,1012.61
2023-05-17T02:39:45.916Z,1012.66
2023-05-17T02:40:46.150Z,1012.65
2023-05-17T02:41:46.474Z,1012.65
2023-05-17T02:42:46.680Z,1012.64
2023-05-17T02:43:47.052Z,1012.69
2023-05-17T02:44:47.224Z,1012.67
2023-05-17T02:45:47.532Z,1012.68
2023-05-17T02:46:47.753Z,1012.69
2023-05-17T02:47:48.087Z,1012.72
2023-05-17T02:48:48.157Z,1012.73
2023-05-17T02:49:48.360Z,1012.70
2023-05-17T02:50:48.564Z,1012.69
2023-05-17T02:51:48.849Z,1012.70
2023-05-17T02:52:49.033Z,1012.65
2023-05-17T02:53:49.332Z,1012.67
2023-05-17T02:54:49.510Z,1012.67
2023-05-17T02:55:49.821Z,1012.65
2023-05-17T02:56:50.007Z,1012.69
2023-05-17T02:57:50.266Z,1012.70
2023-05-17T02:58:50.449Z,1012.71
2023-05-17T02:59:50.740Z,1012.72
2023-05-17T03:00:50.914Z,1012.72
2023-05-17T03:01:51.220Z,1012.74
2023-05-17T03:02:51.507Z,1012.79
2023-05-17T03:03:52.047Z,1012.81
2023-05-17T03:04:52.089Z,1012.79
2023-05-17T03:05:52.206Z,1012.80
2023-05-17T03:06:52.393Z,1012.78
2023-05-17T03:07:52.578Z,1012.79
2023-05-17T03:08:52.980Z,1012.84
2023-05-17T03:09:53.037Z,1012.82
2023-05-17T03:10:53.242Z,1012.84
2023-05-17T03:11:53.433Z,1012.80
2023-05-17T03:12:53.639Z,1012.90
2023-05-17T03:13:53.827Z,1012.89
2023-05-17T03:14:54.007Z,1012.89
2023-05-17T03:15:54.196Z,1012.88
2023-05-17T03:16:54.518Z,1012.89
2023-05-17T03:17:54.668Z,1012.92
2023-05-17T03:18:54.988Z,1012.92
2023-05-17T03:19:55.170Z,1012.90
2023-05-17T03:20:55.309Z,1012.88
2023-05-17T03:21:55.624Z,1012.86
2023-05-17T03:22:55.824Z,1012.92
2023-05-17T03:23:56.137Z,1012.93
2023-05-17T03:24:56.336Z,1012.88
2023-05-17T03:25:56.612Z,1012.92
2023-05-17T03:26:56.799Z,1012.91
2023-05-17T03:27:56.980Z,1012.91
2023-05-17T03:28:57.266Z,1012.88
2023-05-17T03:29:57.578Z,1012.93
2023-05-17T03:30:57.843Z,1012.95
2023-05-17T03:31:58.074Z,1012.94
2023-05-17T03:32:58.397Z,1013.00
2023-05-17T03:33:58.593Z,1012.96
2023-05-17T03:34:58.780Z,1012.96
2023-05-17T03:35:58.961Z,1013.03
2023-05-17T03:36:59.180Z,1013.01
2023-05-17T03:37:59.345Z,1013.04
2023-05-17T03:38:59.534Z,1013.05
2023-05-17T03:39:59.715Z,1013.04
2023-05-17T03:40:59.906Z,1013.11
2023-05-17T03:42:00.105Z,1013.09
2023-05-17T03:43:00.284Z,1013.07
2023-05-17T03:44:00.461Z,1013.09
2023-05-17T03:45:00.662Z,1013.09
2023-05-17T03:46:00.859Z,1013.05
2023-05-17T03:47:01.075Z,1013.08
2023-05-17T03:48:01.290Z,1013.17
2023-05-17T03:49:01.490Z,1013.16
2023-05-17T03:50:01.761Z,1013.15
2023-05-17T03:51:01.915Z,1013.21
2023-05-17T03:52:02.220Z,1013.21
2023-05-17T03:53:02.434Z,1013.21
2023-05-17T03:54:02.719Z,1013.19
2023-05-17T03:55:02.901Z,1013.24
2023-05-17T03:56:03.178Z,1013.25
2023-05-17T03:57:03.372Z,1013.27
2023-05-17T03:58:03.571Z,1013.31
2023-05-17T03:59:03.749Z,1013.29
2023-05-17T04:00:04.095Z,1013.29
2023-05-17T04:01:04.280Z,1013.32
2023-05-17T04:02:04.574Z,1013.32
2023-05-17T04:03:04.782Z,1013.37
2023-05-17T04:04:05.075Z,1013.38
2023-05-17T04:05:05.282Z,1013.37
2023-05-17T04:06:05.462Z,1013.42
2023-05-17T04:07:05.651Z,1013.40
2023-05-17T04:08:05.966Z,1013.44
2023-05-17T04:09:06.152Z,1013.46
2023-05-17T04:10:06.436Z,1013.50
2023-05-17T04:11:06.651Z,1013.47
2023-05-17T04:12:06.828Z,1013.50
2023-05-17T04:13:07.028Z,1013.52
2023-05-17T04:14:07.333Z,1013.52
2023-05-17T04:15:07.522Z,1013.51
2023-05-17T04:16:07.848Z,1013.51
2023-05-17T04:17:08.016Z,1013.53
2023-05-17T04:18:08.424Z,1013.47
2023-05-17T04:19:08.774Z,1013.48
2023-05-17T04:20:08.774Z,1013.47
2023-05-17T04:21:09.144Z,1013.46
2023-05-17T04:22:09.230Z,1013.45
2023-05-17T04:23:09.480Z,1013.49
2023-05-17T04:24:09.685Z,1013.48
2023-05-17T04:25:09.857Z,1013.48
2023-05-17T04:26:10.556Z,1013.47
2023-05-17T04:27:10.387Z,1013.49
2023-05-17T04:28:10.700Z,1013.51
2023-05-17T04:29:10.956Z,1013.56
2023-05-17T04:30:11.237Z,1013.55
2023-05-17T04:31:11.489Z,1013.57
2023-05-17T04:32:11.715Z,1013.55
2023-05-17T04:33:14.092Z,1013.52
2023-05-17T04:34:12.284Z,1013.56
2023-05-17T04:35:12.454Z,1013.61
2023-05-17T04:36:12.656Z,1013.60
2023-05-17T04:37:12.837Z,1013.62
2023-05-17T04:38:13.146Z,1013.70
2023-05-17T04:39:13.316Z,1013.62
2023-05-17T04:40:13.600Z,1013.66
2023-05-17T04:41:13.835Z,1013.67
2023-05-17T04:42:14.027Z,1013.67
2023-05-17T04:43:14.289Z,1013.70
2023-05-17T04:44:14.500Z,1013.71
2023-05-17T04:45:15.655Z,1013.77
2023-05-17T04:46:15.082Z,1013.73
2023-05-17T04:47:15.142Z,1013.73
2023-05-17T04:48:15.492Z,1013.81
2023-05-17T04:49:15.578Z,1013.77
2023-05-17T04:50:15.882Z,1013.79
2023-05-17T04:51:16.094Z,1013.84
2023-05-17T04:52:16.281Z,1013.89
2023-05-17T04:53:16.508Z,1013.88
2023-05-17T04:54:16.711Z,1013.91
2023-05-17T04:55:16.888Z,1013.96
2023-05-17T04:56:17.147Z,1013.99
2023-05-17T04:57:17.380Z,1014.01
2023-05-17T04:58:17.642Z,1014.06
2023-05-17T04:59:17.915Z,1014.05
2023-05-17T05:00:18.139Z,1014.07
2023-05-17T05:01:18.339Z,1014.06
2023-05-17T05:02:18.575Z,1014.07
2023-05-17T05:03:18.811Z,1014.10
2023-05-17T05:04:19.183Z,1014.11
2023-05-17T05:05:19.158Z,1014.11
2023-05-17T05:06:19.560Z,1014.20
2023-05-17T05:07:19.689Z,1014.10
2023-05-17T05:08:19.992Z,1014.18
2023-05-17T05:09:20.200Z,1014.17
2023-05-17T05:10:20.448Z,1014.16
2023-05-17T05:11:20.640Z,1014.13
2023-05-17T05:12:20.865Z,1014.13
2023-05-17T05:13:21.044Z,1014.20
2023-05-17T05:14:21.378Z,1014.24
2023-05-17T05:15:21.486Z,1014.24
2023-05-17T05:16:21.711Z,1014.28
2023-05-17T05:17:21.939Z,1014.26
2023-05-17T05:18:22.267Z,1014.28
2023-05-17T05:19:22.372Z,1014.28
2023-05-17T05:20:22.566Z,1014.27
2023-05-17T05:21:22.767Z,1014.31
2023-05-17T05:22:22.964Z,1014.33
2023-05-17T05:23:23.131Z,1014.35
2023-05-17T05:24:23.424Z,1014.37
2023-05-17T05:25:23.490Z,1014.40
2023-05-17T05:26:23.817Z,1014.38
2023-05-17T05:27:24.014Z,1014.38
2023-05-17T05:28:24.246Z,1014.42
2023-05-17T05:29:24.392Z,1014.40
2023-05-17T05:30:24.671Z,1014.43
2023-05-17T05:31:24.907Z,1014.41
2023-05-17T05:32:25.114Z,1014.43
2023-05-17T05:33:25.333Z,1014.37
2023-05-17T05:34:25.549Z,1014.42
2023-05-17T05:35:25.757Z,1014.38
2023-05-17T05:36:25.948Z,1014.39
2023-05-17T05:37:26.111Z,1014.46
2023-05-17T05:38:26.402Z,1014.41
2023-05-17T05:39:26.585Z,1014.45
2023-05-17T05:40:26.958Z,1014.44
2023-05-17T05:41:27.007Z,1014.44
2023-05-17T05:42:27.163Z,1014.45
2023-05-17T05:43:27.353Z,1014.51
2023-05-17T05:44:27.517Z,1014.51
2023-05-17T05:45:27.677Z,1014.64
2023-05-17T05:46:27.990Z,1014.62
2023-05-17T05:47:28.222Z,1014.54
2023-05-17T05:48:28.410Z,1014.66
2023-05-17T05:49:28.571Z,1014.65
2023-05-17T05:50:29.137Z,1014.62
2023-05-17T05:51:29.073Z,1014.71
2023-05-17T05:52:29.262Z,1014.74
2023-05-17T05:53:29.481Z,1014.69
2023-05-17T05:54:29.664Z,1014.73
2023-05-17T05:55:29.809Z,1014.69
2023-05-17T05:56:37.108Z,1014.73
2023-05-17T05:57:30.247Z,1014.67
2023-05-17T05:58:32.169Z,1014.65
2023-05-17T05:59:30.774Z,1014.70
2023-05-17T06:00:31.197Z,1014.66
2023-05-17T06:01:31.257Z,1014.73
2023-05-17T06:02:31.405Z,1014.62
2023-05-17T06:03:31.549Z,1014.69
2023-05-17T06:04:43.970Z,1014.65
2023-05-17T06:05:33.220Z,1014.72
2023-05-17T06:06:32.458Z,1014.76
2023-05-17T06:07:32.510Z,1014.69
2023-05-17T06:08:32.762Z,1014.74
2023-05-17T06:09:32.903Z,1014.71
2023-05-17T06:10:33.192Z,1014.67
2023-05-17T06:11:33.361Z,1014.78
2023-05-17T06:12:33.646Z,1014.76
2023-05-17T06:13:33.791Z,1014.82
2023-05-17T06:14:33.958Z,1014.86
2023-05-17T06:15:34.148Z,1014.84
2023-05-17T06:16:34.340Z,1014.89
2023-05-17T06:17:34.528Z,1014.85
2023-05-17T06:18:34.770Z,1014.81
2023-05-17T06:19:34.905Z,1014.80
2023-05-17T06:20:35.078Z,1014.86
2023-05-17T06:21:35.415Z,1014.97
2023-05-17T06:22:35.454Z,1014.86
2023-05-17T06:23:35.689Z,1014.90
2023-05-17T06:24:35.842Z,1014.83
2023-05-17T06:25:35.991Z,1014.88
2023-05-17T06:26:36.239Z,1014.87
2023-05-17T06:27:36.381Z,1014.96
2023-05-17T06:28:36.634Z,1014.89
2023-05-17T06:29:36.786Z,1014.90
2023-05-17T06:30:36.951Z,1014.95
2023-05-17T06:31:37.096Z,1014.91
2023-05-17T06:32:37.380Z,1014.92
2023-05-17T06:33:37.517Z,1014.97
2023-05-17T06:34:37.718Z,1014.91
2023-05-17T06:35:51.691Z,1015.03
2023-05-17T06:36:39.096Z,1014.98
2023-05-17T06:37:38.255Z,1014.93
2023-05-17T06:38:38.381Z,1015.01
2023-05-17T06:39:38.511Z,1015.01
2023-05-17T06:40:38.649Z,1014.93
2023-05-17T06:41:38.799Z,1014.94
2023-05-17T06:42:38.900Z,1014.99
2023-05-17T06:43:39.032Z,1015.01
2023-05-17T06:44:39.133Z,1015.00
2023-05-17T06:45:39.250Z,1014.89
2023-05-17T06:46:39.383Z,1014.99
2023-05-17T06:47:39.611Z,1015.06
2023-05-17T06:48:39.688Z,1014.97
2023-05-17T06:49:39.773Z,1014.92
2023-05-17T06:50:39.875Z,1015.02
2023-05-17T06:51:39.985Z,1014.96
2023-05-17T06:52:40.077Z,1014.90
2023-05-17T06:53:40.188Z,1014.94
2023-05-17T06:54:40.322Z,1015.00
2023-05-17T06:55:40.441Z,1014.99
2023-05-17T06:56:40.559Z,1015.00
2023-05-17T06:57:40.674Z,1014.96
2023-05-17T06:58:40.812Z,1014.98
2023-05-17T06:59:40.914Z,1014.97
2023-05-17T07:00:41.045Z,1015.09
2023-05-17T07:01:41.185Z,1015.00
2023-05-17T07:02:41.362Z,1014.93
2023-05-17T07:03:41.601Z,1014.97
2023-05-17T07:04:41.725Z,1014.96
2023-05-17T07:05:41.754Z,1014.97
2023-05-17T07:06:41.885Z,1014.98
2023-05-17T07:07:42.019Z,1015.09
2023-05-17T07:08:42.177Z,1015.04
2023-05-17T07:09:42.406Z,1015.08
2023-05-17T07:10:42.447Z,1015.11
2023-05-17T07:11:42.596Z,1015.09
2023-05-17T07:12:42.758Z,1015.08
2023-05-17T07:13:42.909Z,1015.14
2023-05-17T07:14:43.095Z,1015.04
2023-05-17T07:15:43.239Z,1015.15
2023-05-17T07:16:43.449Z,1015.20
2023-05-17T07:17:43.644Z,1014.98
2023-05-17T07:18:43.926Z,1015.16
2023-05-17T07:19:44.073Z,1015.14
2023-05-17T07:20:44.047Z,1015.06
2023-05-17T07:21:44.188Z,1015.11
2023-05-17T07:22:44.331Z,1015.15
2023-05-17T07:23:44.423Z,1015.14
2023-05-17T07:24:44.539Z,1015.21
2023-05-17T07:25:45.215Z,1015.15
2023-05-17T07:26:44.758Z,1015.14
2023-05-17T07:27:44.894Z,1015.21
2023-05-17T07:28:45.013Z,1015.24
2023-05-17T07:29:45.112Z,1015.18
2023-05-17T07:30:45.261Z,1015.23
2023-05-17T07:31:45.334Z,1015.04
2023-05-17T07:32:45.481Z,1015.11
2023-05-17T07:33:45.599Z,1015.24
2023-05-17T07:34:45.739Z,1015.30
2023-05-17T07:35:46.879Z,1015.20
2023-05-17T07:36:45.946Z,1015.04
2023-05-17T07:37:46.182Z,1015.29
2023-05-17T07:38:46.258Z,1015.24
2023-05-17T07:39:46.391Z,1015.17
2023-05-17T07:40:46.463Z,1015.38
2023-05-17T07:41:46.557Z,1015.16
2023-05-17T07:42:46.643Z,1015.39
2023-05-17T07:43:46.748Z,1015.46
2023-05-17T07:44:46.860Z,1015.27
2023-05-17T07:45:46.972Z,1015.36
2023-05-17T07:46:47.070Z,1015.36
2023-05-17T07:47:47.208Z,1015.47
2023-05-17T07:48:47.310Z,1015.52
2023-05-17T07:49:47.301Z,1015.58
2023-05-17T07:50:47.403Z,1015.61
2023-05-17T07:51:47.481Z,1015.51
2023-05-17T07:52:47.582Z,1015.42
2023-05-17T07:53:47.680Z,1015.61
2023-05-17T07:54:47.743Z,1015.63
2023-05-17T07:55:47.948Z,1015.61
2023-05-17T07:56:48.026Z,1015.62
2023-05-17T07:57:48.126Z,1015.67
2023-05-17T07:58:48.214Z,1015.62
2023-05-17T07:59:48.280Z,1015.64
2023-05-17T08:00:48.359Z,1015.40
2023-05-17T08:01:48.447Z,1015.63
2023-05-17T08:02:48.565Z,1015.68
2023-05-17T08:03:48.674Z,1015.73
2023-05-17T08:04:48.783Z,1015.73
2023-05-17T08:05:48.821Z,1015.78
2023-05-17T08:06:48.914Z,1015.82
2023-05-17T08:07:48.993Z,1015.80
2023-05-17T08:08:49.131Z,1015.75
2023-05-17T08:09:49.203Z,1015.76
2023-05-17T08:10:49.259Z,1015.77
2023-05-17T08:11:49.350Z,1015.82
2023-05-17T08:12:49.423Z,1015.79
2023-05-17T08:13:49.518Z,1015.82
2023-05-17T08:14:49.550Z,1015.71
2023-05-17T08:15:51.579Z,1015.70
2023-05-17T08:16:49.720Z,1015.82
2023-05-17T08:17:49.925Z,1015.79
2023-05-17T08:18:50.028Z,1015.70
2023-05-17T08:19:50.019Z,1015.76
2023-05-17T08:20:50.121Z,1015.84
2023-05-17T08:21:50.156Z,1015.75
2023-05-17T08:22:50.242Z,1015.80
2023-05-17T08:23:50.347Z,1015.78
2023-05-17T08:24:50.402Z,1015.76
2023-05-17T08:25:50.513Z,1015.83
2023-05-17T08:26:50.581Z,1015.81
2023-05-17T08:27:50.655Z,1015.81
2023-05-17T08:28:50.723Z,1015.88
2023-05-17T08:29:50.789Z,1015.88
2023-05-17T08:30:50.855Z,1015.84
2023-05-17T08:31:50.906Z,1015.84
2023-05-17T08:32:51.029Z,1015.89
2023-05-17T08:33:51.092Z,1015.99
2023-05-17T08:34:51.118Z,1015.86
2023-05-17T08:35:51.264Z,1015.95
2023-05-17T08:36:51.321Z,1015.86
2023-05-17T08:37:51.371Z,1015.86
2023-05-17T08:38:51.409Z,1015.84
2023-05-17T08:39:51.535Z,1015.82
2023-05-17T08:40:51.575Z,1015.90
2023-05-17T08:41:51.614Z,1015.88
2023-05-17T08:42:51.658Z,1015.92
2023-05-17T08:43:51.738Z,1015.93
2023-05-17T08:44:51.743Z,1016.00
2023-05-17T08:45:51.780Z,1015.91
2023-05-17T08:46:51.818Z,1015.92
2023-05-17T08:47:51.875Z,1015.99
2023-05-17T08:48:52.123Z,1015.94
2023-05-17T08:49:51.956Z,1015.95
2023-05-17T08:50:52.005Z,1016.08
2023-05-17T08:51:52.063Z,1016.01
2023-05-17T08:52:52.128Z,1016.03
2023-05-17T08:53:52.144Z,1016.06
2023-05-17T08:54:52.173Z,1016.02
2023-05-17T08:55:52.244Z,1016.04
2023-05-17T08:56:52.340Z,1016.06
2023-05-17T08:57:52.402Z,1015.96
2023-05-17T08:58:57.264Z,1015.93
2023-05-17T08:59:53.497Z,1015.97
2023-05-17T09:00:52.547Z,1015.96
2023-05-17T09:01:52.608Z,1015.91
2023-05-17T09:02:52.733Z,1015.91
2023-05-17T09:03:52.772Z,1015.91
2023-05-17T09:04:52.951Z,1015.88
2023-05-17T09:05:52.943Z,1015.92
2023-05-17T09:06:52.899Z,1015.84
2023-05-17T09:07:52.963Z,1015.96
2023-05-17T09:08:53.151Z,1016.01
2023-05-17T09:09:54.159Z,1015.99
2023-05-17T09:10:53.119Z,1015.94
2023-05-17T09:11:53.153Z,1015.87
2023-05-17T09:12:53.158Z,1015.86
2023-05-17T09:13:53.160Z,1015.90
2023-05-17T09:14:53.145Z,1015.86
2023-05-17T09:15:53.173Z,1015.81
2023-05-17T09:16:53.164Z,1015.86
2023-05-17T09:17:53.505Z,1015.77
2023-05-17T09:18:53.338Z,1015.57
2023-05-17T09:19:53.476Z,1015.77
2023-05-17T09:20:53.368Z,1015.75
2023-05-17T09:21:53.364Z,1015.82
2023-05-17T09:22:53.384Z,1015.80
2023-05-17T09:24:04.647Z,1015.74
2023-05-17T09:24:54.428Z,1015.84
2023-05-17T09:25:53.441Z,1015.82
2023-05-17T09:26:53.432Z,1015.82
2023-05-17T09:27:53.482Z,1015.89
2023-05-17T09:28:53.476Z,1015.80
2023-05-17T09:29:53.517Z,1015.65
2023-05-17T09:30:53.504Z,1015.78
2023-05-17T09:31:53.500Z,1015.82
2023-05-17T09:32:53.512Z,1015.91
2023-05-17T09:33:53.631Z,1015.93
2023-05-17T09:34:53.577Z,1015.98
2023-05-17T09:35:53.583Z,1015.91
2023-05-17T09:36:53.575Z,1015.93
2023-05-17T09:37:53.590Z,1015.94
2023-05-17T09:38:53.577Z,1015.91
2023-05-17T09:39:53.570Z,1015.87
2023-05-17T09:40:53.582Z,1015.92
2023-05-17T09:41:53.571Z,1015.95
2023-05-17T09:42:53.615Z,1015.90
2023-05-17T09:43:53.634Z,1015.94
2023-05-17T09:44:53.628Z,1015.96
2023-05-17T09:45:53.649Z,1015.96
2023-05-17T09:46:53.636Z,1015.89
2023-05-17T09:47:53.814Z,1015.89
2023-05-17T09:48:53.771Z,1015.84
2023-05-17T09:49:53.674Z,1015.86
2023-05-17T09:50:53.670Z,1015.88
2023-05-17T09:51:53.688Z,1015.91
2023-05-17T09:52:53.668Z,1015.82
2023-05-17T09:53:53.661Z,1015.89
2023-05-17T09:54:53.671Z,1015.92
2023-05-17T09:55:53.655Z,1015.83
2023-05-17T09:56:53.642Z,1015.88
2023-05-17T09:57:53.613Z,1015.96
2023-05-17T09:58:53.604Z,1015.89
2023-05-17T09:59:53.596Z,1015.87
2023-05-17T10:00:53.576Z,1015.93
2023-05-17T10:01:53.607Z,1015.94
2023-05-17T10:02:53.693Z,1015.86
2023-05-17T10:03:53.680Z,1015.53
2023-05-17T10:04:53.636Z,1015.94
2023-05-17T10:05:53.628Z,1015.95
2023-05-17T10:06:53.621Z,1015.98
2023-05-17T10:07:53.607Z,1015.92
2023-05-17T10:08:53.600Z,1015.95
2023-05-17T10:09:53.591Z,1015.99
2023-05-17T10:10:53.559Z,1015.96
2023-05-17T10:11:53.546Z,1015.95
2023-05-17T10:12:53.531Z,1015.91
2023-05-17T10:13:53.509Z,1015.87
2023-05-17T10:14:53.592Z,1015.94
2023-05-17T10:15:53.550Z,1015.94
2023-05-17T10:16:53.516Z,1015.84
2023-05-17T10:17:53.507Z,1015.91
2023-05-17T10:18:53.484Z,1015.89
2023-05-17T10:19:53.529Z,1015.90
2023-05-17T10:20:53.387Z,1015.87
2023-05-17T10:21:53.358Z,1015.83
2023-05-17T10:22:53.336Z,1015.76
2023-05-17T10:23:53.306Z,1015.88
2023-05-17T10:24:53.272Z,1015.87
2023-05-17T10:25:53.236Z,1015.92
2023-05-17T10:26:53.207Z,1015.91
2023-05-17T10:27:53.160Z,1015.94
2023-05-17T10:28:53.118Z,1015.94
2023-05-17T10:29:53.195Z,1015.89
2023-05-17T10:30:53.156Z,1015.96
2023-05-17T10:31:53.170Z,1015.91
2023-05-17T10:32:53.229Z,1015.93
2023-05-17T10:33:53.187Z,1015.80
2023-05-17T10:35:02.201Z,1015.73
2023-05-17T10:35:54.144Z,1015.96
2023-05-17T10:36:53.108Z,1015.90
2023-05-17T10:37:53.106Z,1015.91
2023-05-17T10:38:53.065Z,1015.86
2023-05-17T10:39:53.060Z,1015.84
2023-05-17T10:40:53.023Z,1015.87
2023-05-17T10:41:53.133Z,1015.93
2023-05-17T10:42:52.951Z,1015.73
2023-05-17T10:43:52.928Z,1015.65
2023-05-17T10:44:52.900Z,1016.00
2023-05-17T10:45:52.935Z,1016.05
2023-05-17T10:46:52.907Z,1016.09
2023-05-17T10:47:53.048Z,1016.04
2023-05-17T10:48:53.000Z,1016.11
2023-05-17T10:49:52.957Z,1016.16
2023-05-17T10:51:00.968Z,1016.08
2023-05-17T10:51:53.939Z,1015.80
2023-05-17T10:52:52.928Z,1015.94
2023-05-17T10:53:52.916Z,1016.05
2023-05-17T10:54:54.107Z,1016.06
2023-05-17T10:55:52.943Z,1016.12
2023-05-17T10:56:52.948Z,1016.03
2023-05-17T10:57:52.936Z,1016.04
2023-05-17T10:58:52.982Z,1016.05
2023-05-17T10:59:52.991Z,1016.11
2023-05-17T11:00:53.878Z,1016.16
2023-05-17T11:01:52.957Z,1016.14
2023-05-17T11:02:53.008Z,1016.07
2023-05-17T11:03:52.947Z,1016.07
2023-05-17T11:04:53.017Z,1016.10
2023-05-17T11:05:52.930Z,1016.08
2023-05-17T11:06:52.927Z,1016.10
2023-05-17T11:07:52.875Z,1016.10
2023-05-17T11:08:52.867Z,1016.14
2023-05-17T11:09:52.852Z,1016.11
2023-05-17T11:10:52.848Z,1016.13
2023-05-17T11:11:52.839Z,1016.09
2023-05-17T11:12:52.825Z,1015.98
2023-05-17T11:13:52.814Z,1016.09
2023-05-17T11:14:52.810Z,1016.06
2023-05-17T11:15:52.797Z,1016.12
2023-05-17T11:16:52.791Z,1016.08
2023-05-17T11:17:53.475Z,1016.13
2023-05-17T11:18:53.163Z,1016.14
2023-05-17T11:19:52.975Z,1016.16
2023-05-17T11:20:52.981Z,1016.09
2023-05-17T11:21:52.773Z,1016.09
2023-05-17T11:22:52.811Z,1016.03
2023-05-17T11:23:52.802Z,1016.06
2023-05-17T11:24:52.800Z,1016.15
2023-05-17T11:25:54.209Z,1016.15
2023-05-17T11:26:52.849Z,1016.07
2023-05-17T11:27:52.830Z,1015.95
2023-05-17T11:28:52.844Z,1015.82
2023-05-17T11:29:52.849Z,1015.77
2023-05-17T11:30:52.868Z,1015.80
2023-05-17T11:31:52.888Z,1015.84
2023-05-17T11:32:52.925Z,1015.78
2023-05-17T11:33:52.937Z,1015.74
2023-05-17T11:34:52.905Z,1015.68
2023-05-17T11:35:52.893Z,1015.84
2023-05-17T11:36:52.891Z,1015.88
2023-05-17T11:37:52.869Z,1015.83
2023-05-17T11:39:01.497Z,1015.81
2023-05-17T11:39:55.337Z,1015.78
2023-05-17T11:40:52.876Z,1015.77
2023-05-17T11:41:52.889Z,1015.86
2023-05-17T11:42:52.895Z,1015.90
2023-05-17T11:43:52.964Z,1015.82
2023-05-17T11:44:52.957Z,1015.82
2023-05-17T11:45:53.667Z,1015.71
2023-05-17T11:46:52.988Z,1015.74
2023-05-17T11:47:53.081Z,1015.69
2023-05-17T11:48:53.347Z,1015.85
2023-05-17T11:49:55.628Z,1015.76
2023-05-17T11:50:53.198Z,1015.80
2023-05-17T11:51:53.199Z,1015.82
2023-05-17T11:52:53.214Z,1015.81
2023-05-17T11:53:53.246Z,1015.83
2023-05-17T11:54:53.235Z,1015.88
2023-05-17T11:55:53.246Z,1015.90
2023-05-17T11:56:53.248Z,1015.88
2023-05-17T11:58:00.255Z,1015.86
2023-05-17T11:58:55.050Z,1015.84
2023-05-17T11:59:55.965Z,1015.80
2023-05-17T12:00:53.317Z,1015.77
2023-05-17T12:01:53.332Z,1015.81
2023-05-17T12:02:53.414Z,1015.89
2023-05-17T12:03:53.437Z,1015.86
2023-05-17T12:04:53.514Z,1015.88
2023-05-17T12:05:53.524Z,1015.91
2023-05-17T12:06:53.695Z,1016.01